»·PEaware :: N925DM KPSP-KSBA

N925DM :: KPSP-KSBA

FLIGHT INFORMATION

Flight Status: Arrived
Operator: Privately registered:
United States
More flights under this callsign
Pilot: Luis Carlos C. (28559)
Aircraft: Unknown
(L35)
More flights by this aircraft type
Origin: KPSP Palm Springs Intl
United States
Destination: KSBA Santa Barbara Mun
United States
More flights between these airports :: More routes between these airports
Route: CATH1 PSP V388 DEWAY POM VNY V186 DEANO V27 KWANG
File this flight plan on PilotEdge
Remarks:
Altitude:
(Current/Filed)
18,000ft
Speed:
(Current/Filed)
300kts
Departed: 26-Mar-20 04:16 PM
Arrived: 26-Mar-20 05:03 PM
Distance/Time
Traveled:
170nm/0:47
Distance/Time
To Go:
Arrived

Flight Plot

Page will automatically refresh every two minutes.

Flight plan parsing failed; only flown route is shown


Map Options




Map Legend


Flown Route
Filed Route
Departure Airport
Arrival Airport
Navaid (VOR, NDB)
Fix

Horizontal Profiles

Position Reports

Time Latitude Longitude Heading Altitude Ground
Speed
26-Mar-20 15:23 33.823074 -116.498072 53 479ft 0kts
26-Mar-20 15:24 33.823074 -116.498072 53 479ft 0kts
26-Mar-20 15:24 33.823074 -116.498072 53 479ft 0kts
26-Mar-20 15:25 33.823074 -116.498072 53 479ft 0kts
26-Mar-20 15:26 33.823074 -116.498072 53 479ft 0kts
26-Mar-20 15:27 33.823074 -116.498072 53 479ft 0kts
26-Mar-20 15:28 33.823074 -116.498072 53 479ft 0kts
26-Mar-20 15:29 33.823074 -116.498072 53 479ft 0kts
26-Mar-20 15:30 33.823074 -116.498072 53 479ft 0kts
26-Mar-20 15:32 33.823074 -116.498072 53 479ft 0kts
26-Mar-20 15:33 33.823074 -116.498072 53 479ft 0kts
26-Mar-20 15:34 33.823074 -116.498072 53 479ft 0kts
26-Mar-20 15:35 33.823074 -116.498072 53 479ft 0kts
26-Mar-20 15:36 33.823074 -116.498072 53 479ft 0kts
26-Mar-20 15:37 33.823074 -116.498072 53 479ft 0kts
26-Mar-20 15:38 33.823074 -116.498072 53 479ft 0kts
26-Mar-20 15:39 33.823074 -116.498072 53 479ft 0kts
26-Mar-20 15:40 33.823074 -116.498072 53 479ft 0kts
26-Mar-20 15:41 33.823075 -116.498072 53 479ft 0kts
26-Mar-20 15:42 33.823075 -116.498072 53 479ft 0kts
26-Mar-20 15:43 33.823075 -116.498072 53 479ft 0kts
26-Mar-20 15:44 33.823075 -116.498072 53 479ft 0kts
26-Mar-20 15:45 33.823075 -116.498072 53 479ft 0kts
26-Mar-20 15:46 33.823075 -116.498072 53 479ft 0kts
26-Mar-20 15:47 33.823075 -116.498072 53 479ft 0kts
26-Mar-20 15:48 33.823075 -116.498072 53 479ft 0kts
26-Mar-20 15:49 33.823075 -116.498072 53 479ft 0kts
26-Mar-20 15:50 33.823075 -116.498072 53 479ft 0kts
26-Mar-20 15:51 33.823075 -116.498072 53 479ft 0kts
26-Mar-20 15:52 33.823075 -116.498072 53 479ft 0kts
26-Mar-20 15:53 33.823075 -116.498072 53 479ft 0kts
26-Mar-20 15:54 33.823075 -116.498072 53 479ft 0kts
26-Mar-20 15:55 33.823075 -116.498072 53 479ft 0kts
26-Mar-20 15:56 33.823075 -116.498072 53 479ft 0kts
26-Mar-20 15:57 33.823075 -116.498072 53 479ft 0kts
26-Mar-20 15:58 33.823075 -116.498072 53 479ft 0kts
26-Mar-20 15:59 33.823075 -116.498072 53 479ft 0kts
26-Mar-20 16:00 33.823075 -116.498071 53 479ft 0kts
26-Mar-20 16:01 33.823076 -116.498069 53 479ft 0kts
26-Mar-20 16:02 33.823078 -116.498067 53 479ft 0kts
26-Mar-20 16:03 33.823079 -116.498065 53 479ft 0kts
26-Mar-20 16:04 33.823082 -116.498060 53 479ft 0kts
26-Mar-20 16:05 33.823110 -116.498014 53 479ft 0kts
26-Mar-20 16:06 33.822056 -116.496787 141 479ft 13kts
26-Mar-20 16:07 33.821526 -116.496284 141 479ft 6kts
26-Mar-20 16:08 33.820421 -116.495359 185 479ft 0kts
26-Mar-20 16:09 33.820419 -116.495360 185 479ft 0kts
26-Mar-20 16:10 33.820417 -116.495360 185 479ft 0kts
26-Mar-20 16:11 33.819897 -116.495975 232 479ft 10kts
26-Mar-20 16:12 33.819344 -116.496877 231 479ft 0kts
26-Mar-20 16:13 33.818896 -116.497726 253 479ft 8kts
26-Mar-20 16:14 33.819069 -116.498219 323 479ft 0kts
26-Mar-20 16:15 33.833571 -116.511117 324 644ft 184kts
26-Mar-20 16:16 33.871783 -116.551284 315 4618ft 171kts
26-Mar-20 16:17 33.908035 -116.587122 343 6220ft 182kts
26-Mar-20 16:18 33.925015 -116.548924 131 10162ft 176kts
26-Mar-20 16:19 33.895439 -116.493797 95 11225ft 235kts
26-Mar-20 16:20 33.937654 -116.434142 34 11181ft 247kts
26-Mar-20 16:21 33.998827 -116.402152 344 10934ft 250kts
26-Mar-20 16:22 34.023182 -116.470922 262 11341ft 246kts
26-Mar-20 16:23 34.013933 -116.553474 260 11791ft 248kts
26-Mar-20 16:24 34.001131 -116.635877 252 12027ft 256kts
26-Mar-20 16:25 33.979651 -116.720328 251 12042ft 269kts
26-Mar-20 16:26 33.957072 -116.807891 251 12069ft 277kts
26-Mar-20 16:27 33.935934 -116.890068 251 12038ft 234kts
26-Mar-20 16:28 33.937176 -116.966778 281 12045ft 254kts
26-Mar-20 16:29 33.954990 -117.060985 281 12023ft 307kts
26-Mar-20 16:30 33.973482 -117.162818 281 12003ft 321kts
26-Mar-20 16:31 33.992654 -117.268846 281 11972ft 327kts
26-Mar-20 16:32 34.011589 -117.373702 281 11897ft 332kts
26-Mar-20 16:33 34.031205 -117.482329 281 11888ft 331kts
26-Mar-20 16:34 34.050204 -117.587604 281 11888ft 331kts
26-Mar-20 16:35 34.063780 -117.662362 281 11912ft 330kts
26-Mar-20 16:36 34.083503 -117.770815 281 11925ft 331kts
26-Mar-20 16:37 34.098945 -117.869106 279 11923ft 331kts
26-Mar-20 16:38 34.111425 -117.942560 281 11910ft 333kts
26-Mar-20 16:39 34.126759 -118.019607 283 11897ft 333kts
26-Mar-20 16:40 34.141820 -118.092950 282 11882ft 303kts
26-Mar-20 16:41 34.158788 -118.180889 280 11894ft 247kts
26-Mar-20 16:42 34.172264 -118.245565 283 11911ft 293kts
26-Mar-20 16:43 34.193025 -118.342755 283 11905ft 321kts
26-Mar-20 16:44 34.214917 -118.449767 282 11917ft 333kts
26-Mar-20 16:45 34.236835 -118.530686 292 11902ft 338kts
26-Mar-20 16:46 34.273007 -118.636099 291 11911ft 341kts
26-Mar-20 16:47 34.302355 -118.721980 291 11933ft 341kts
26-Mar-20 16:48 34.327266 -118.795004 291 11944ft 341kts
26-Mar-20 16:49 34.354769 -118.901952 269 11939ft 304kts
26-Mar-20 16:50 34.348026 -119.001325 263 9632ft 293kts
26-Mar-20 16:51 34.340808 -119.098271 263 7987ft 283kts
26-Mar-20 16:52 34.333656 -119.194235 265 7930ft 288kts
26-Mar-20 16:53 34.326381 -119.291196 263 7933ft 290kts
26-Mar-20 16:54 34.319085 -119.385476 263 6911ft 265kts
26-Mar-20 16:55 34.312348 -119.472668 264 4283ft 254kts
26-Mar-20 16:56 34.322603 -119.545743 293 3405ft 209kts
26-Mar-20 16:57 34.344160 -119.607873 293 2916ft 195kts
26-Mar-20 16:58 34.360783 -119.655840 293 2920ft 202kts
26-Mar-20 16:59 34.383775 -119.715944 305 2690ft 198kts
26-Mar-20 17:00 34.412815 -119.755714 317 1794ft 190kts
26-Mar-20 17:01 34.428821 -119.805285 267 599ft 158kts
26-Mar-20 17:02 34.427695 -119.844984 269 13ft 10kts
26-Mar-20 17:03 34.428281 -119.845981 67 13ft 6kts
26-Mar-20 17:04 34.428414 -119.845621 64 13ft 0kts
26-Mar-20 17:05 34.429062 -119.846050 69 13ft 0kts
26-Mar-20 17:06 34.429062 -119.846050 69 13ft 0kts
26-Mar-20 17:07 34.429062 -119.846050 69 13ft 0kts
26-Mar-20 17:09 34.429062 -119.846050 69 13ft 0kts
26-Mar-20 17:10 34.429062 -119.846050 69 13ft 0kts
26-Mar-20 17:11 34.429062 -119.846050 69 13ft 0kts

Navigation Log

Ident Type
Flight plan parsing failed, navigation log unavailable